sensor_id;sensor_type;location;lat;lon;timestamp;pressure;altitude;pressure_sealevel;temperature;humidity
45369;BME280;51342;55.250;37.668;2022-07-29T00:03:40;99624.59;;;15.95;70.61
45369;BME280;51342;55.250;37.668;2022-07-29T00:06:11;99619.28;;;15.94;70.79
45369;BME280;51342;55.250;37.668;2022-07-29T00:08:43;99615.72;;;15.90;70.78
45369;BME280;51342;55.250;37.668;2022-07-29T00:11:14;99621.81;;;15.90;70.85
45369;BME280;51342;55.250;37.668;2022-07-29T00:13:45;99625.25;;;15.89;70.93
45369;BME280;51342;55.250;37.668;2022-07-29T00:16:17;99627.72;;;15.85;70.68
45369;BME280;51342;55.250;37.668;2022-07-29T00:18:48;99626.59;;;15.78;70.88
45369;BME280;51342;55.250;37.668;2022-07-29T00:21:20;99617.59;;;15.70;70.60
45369;BME280;51342;55.250;37.668;2022-07-29T00:23:51;99620.84;;;15.63;70.79
45369;BME280;51342;55.250;37.668;2022-07-29T00:26:23;99628.59;;;15.61;71.17
45369;BME280;51342;55.250;37.668;2022-07-29T00:28:54;99626.69;;;15.57;71.03
45369;BME280;51342;55.250;37.668;2022-07-29T00:31:25;99624.00;;;15.54;71.20
45369;BME280;51342;55.250;37.668;2022-07-29T00:33:57;99622.97;;;15.51;71.11
45369;BME280;51342;55.250;37.668;2022-07-29T00:36:29;99623.72;;;15.48;71.21
45369;BME280;51342;55.250;37.668;2022-07-29T00:39:01;99625.22;;;15.42;71.12
45369;BME280;51342;55.250;37.668;2022-07-29T00:41:33;99623.41;;;15.39;70.98
45369;BME280;51342;55.250;37.668;2022-07-29T00:44:04;99634.78;;;15.41;70.84
45369;BME280;51342;55.250;37.668;2022-07-29T00:46:36;99642.50;;;15.38;70.76
45369;BME280;51342;55.250;37.668;2022-07-29T00:49:07;99644.09;;;15.34;71.00
45369;BME280;51342;55.250;37.668;2022-07-29T00:51:39;99635.16;;;15.28;71.17
45369;BME280;51342;55.250;37.668;2022-07-29T00:54:10;99642.97;;;15.28;70.72
45369;BME280;51342;55.250;37.668;2022-07-29T00:56:43;99641.97;;;15.24;71.34
45369;BME280;51342;55.250;37.668;2022-07-29T00:59:15;99638.31;;;15.19;70.94
45369;BME280;51342;55.250;37.668;2022-07-29T01:01:46;99641.63;;;15.15;71.06
45369;BME280;51342;55.250;37.668;2022-07-29T01:04:19;99645.84;;;15.11;70.99
45369;BME280;51342;55.250;37.668;2022-07-29T01:06:51;99646.53;;;15.07;71.22
45369;BME280;51342;55.250;37.668;2022-07-29T01:09:23;99644.66;;;15.03;71.35
45369;BME280;51342;55.250;37.668;2022-07-29T01:11:55;99649.75;;;15.00;71.21
45369;BME280;51342;55.250;37.668;2022-07-29T01:14:27;99658.34;;;14.98;71.14
45369;BME280;51342;55.250;37.668;2022-07-29T01:17:05;99658.06;;;14.92;71.43
45369;BME280;51342;55.250;37.668;2022-07-29T01:31:10;99667.06;;;14.77;71.32
45369;BME280;51342;55.250;37.668;2022-07-29T01:33:51;99656.53;;;14.74;71.66
45369;BME280;51342;55.250;37.668;2022-07-29T01:36:33;99658.25;;;14.74;71.85
45369;BME280;51342;55.250;37.668;2022-07-29T01:39:12;99663.34;;;14.71;72.15
45369;BME280;51342;55.250;37.668;2022-07-29T01:41:50;99661.38;;;14.65;71.96
45369;BME280;51342;55.250;37.668;2022-07-29T01:45:06;99666.41;;;14.61;72.13
45369;BME280;51342;55.250;37.668;2022-07-29T01:50:40;99671.56;;;14.59;72.54
45369;BME280;51342;55.250;37.668;2022-07-29T01:53:23;99670.72;;;14.60;72.72
45369;BME280;51342;55.250;37.668;2022-07-29T01:55:56;99669.88;;;14.61;72.37
45369;BME280;51342;55.250;37.668;2022-07-29T01:58:31;99670.66;;;14.58;72.44
45369;BME280;51342;55.250;37.668;2022-07-29T02:01:05;99663.59;;;14.56;72.41
45369;BME280;51342;55.250;37.668;2022-07-29T02:03:42;99665.13;;;14.51;71.96
45369;BME280;51342;55.250;37.668;2022-07-29T02:06:19;99664.25;;;14.50;71.86
45369;BME280;51342;55.250;37.668;2022-07-29T02:08:52;99669.44;;;14.50;72.37
45369;BME280;51342;55.250;37.668;2022-07-29T02:11:24;99672.19;;;14.53;72.54
45369;BME280;51342;55.250;37.668;2022-07-29T02:13:57;99669.06;;;14.62;72.69
45369;BME280;51342;55.250;37.668;2022-07-29T02:16:32;99671.09;;;14.69;72.36
45369;BME280;51342;55.250;37.668;2022-07-29T02:19:05;99672.38;;;14.80;71.86
45369;BME280;51342;55.250;37.668;2022-07-29T02:21:38;99672.34;;;15.01;71.89
45369;BME280;51342;55.250;37.668;2022-07-29T02:24:11;99665.44;;;15.24;71.81
45369;BME280;51342;55.250;37.668;2022-07-29T02:26:44;99669.91;;;15.51;70.67
45369;BME280;51342;55.250;37.668;2022-07-29T02:29:17;99667.56;;;15.81;70.14
45369;BME280;51342;55.250;37.668;2022-07-29T02:31:51;99670.13;;;16.05;69.45
45369;BME280;51342;55.250;37.668;2022-07-29T02:34:24;99661.47;;;16.31;68.94
45369;BME280;51342;55.250;37.668;2022-07-29T02:36:56;99674.34;;;16.51;68.48
45369;BME280;51342;55.250;37.668;2022-07-29T02:39:28;99679.84;;;16.60;68.02
45369;BME280;51342;55.250;37.668;2022-07-29T02:42:07;99683.53;;;16.66;67.83
45369;BME280;51342;55.250;37.668;2022-07-29T02:44:41;99690.91;;;16.78;67.77
45369;BME280;51342;55.250;37.668;2022-07-29T02:47:17;99684.56;;;16.97;67.62
45369;BME280;51342;55.250;37.668;2022-07-29T02:50:04;99685.28;;;17.20;67.16
45369;BME280;51342;55.250;37.668;2022-07-29T02:52:45;99681.69;;;17.46;66.71
45369;BME280;51342;55.250;37.668;2022-07-29T02:55:59;99671.84;;;17.68;66.45
45369;BME280;51342;55.250;37.668;2022-07-29T02:58:33;99677.16;;;17.99;65.82
45369;BME280;51342;55.250;37.668;2022-07-29T03:01:14;99677.88;;;18.27;65.38
45369;BME280;51342;55.250;37.668;2022-07-29T03:03:48;99670.47;;;18.44;65.09
45369;BME280;51342;55.250;37.668;2022-07-29T03:06:23;99674.28;;;18.58;64.88
45369;BME280;51342;55.250;37.668;2022-07-29T03:08:57;99668.72;;;18.79;63.96
45369;BME280;51342;55.250;37.668;2022-07-29T03:11:30;99661.19;;;18.94;63.39
45369;BME280;51342;55.250;37.668;2022-07-29T03:14:02;99665.03;;;19.09;63.24
45369;BME280;51342;55.250;37.668;2022-07-29T03:16:34;99665.28;;;19.19;62.93
45369;BME280;51342;55.250;37.668;2022-07-29T03:19:07;99669.81;;;19.28;62.67
45369;BME280;51342;55.250;37.668;2022-07-29T03:21:39;99672.66;;;19.37;62.56
45369;BME280;51342;55.250;37.668;2022-07-29T03:24:30;99672.91;;;19.48;62.36
45369;BME280;51342;55.250;37.668;2022-07-29T03:27:03;99672.34;;;19.63;62.24
45369;BME280;51342;55.250;37.668;2022-07-29T03:29:35;99673.41;;;19.71;61.58
45369;BME280;51342;55.250;37.668;2022-07-29T03:32:07;99673.53;;;19.78;61.99
45369;BME280;51342;55.250;37.668;2022-07-29T03:34:38;99674.50;;;19.82;61.34
45369;BME280;51342;55.250;37.668;2022-07-29T03:37:10;99673.00;;;19.95;60.95
45369;BME280;51342;55.250;37.668;2022-07-29T03:39:42;99672.25;;;20.02;60.83
45369;BME280;51342;55.250;37.668;2022-07-29T03:42:16;99666.19;;;20.04;60.35
45369;BME280;51342;55.250;37.668;2022-07-29T03:44:50;99666.22;;;20.07;61.25
45369;BME280;51342;55.250;37.668;2022-07-29T03:47:25;99675.16;;;20.16;60.52
45369;BME280;51342;55.250;37.668;2022-07-29T03:50:01;99677.97;;;20.26;60.43
45369;BME280;51342;55.250;37.668;2022-07-29T03:52:36;99681.59;;;20.34;60.17
45369;BME280;51342;55.250;37.668;2022-07-29T03:55:08;99688.84;;;20.46;59.58
45369;BME280;51342;55.250;37.668;2022-07-29T03:57:40;99690.78;;;20.56;59.30
45369;BME280;51342;55.250;37.668;2022-07-29T04:00:13;99689.97;;;20.60;59.74
45369;BME280;51342;55.250;37.668;2022-07-29T04:02:47;99685.75;;;20.70;58.91
45369;BME280;51342;55.250;37.668;2022-07-29T04:05:19;99693.75;;;20.76;59.65
45369;BME280;51342;55.250;37.668;2022-07-29T04:07:51;99693.94;;;20.88;59.03
45369;BME280;51342;55.250;37.668;2022-07-29T04:10:22;99686.09;;;20.93;58.41
45369;BME280;51342;55.250;37.668;2022-07-29T04:12:54;99687.16;;;21.04;57.65
45369;BME280;51342;55.250;37.668;2022-07-29T04:15:25;99690.88;;;21.17;58.26
45369;BME280;51342;55.250;37.668;2022-07-29T04:17:59;99690.94;;;21.22;57.18
45369;BME280;51342;55.250;37.668;2022-07-29T04:20:31;99689.22;;;21.27;57.35
45369;BME280;51342;55.250;37.668;2022-07-29T04:23:02;99699.94;;;21.36;56.69
45369;BME280;51342;55.250;37.668;2022-07-29T04:25:37;99697.34;;;21.39;56.75
45369;BME280;51342;55.250;37.668;2022-07-29T04:28:09;99705.34;;;21.47;56.78
45369;BME280;51342;55.250;37.668;2022-07-29T04:30:41;99705.50;;;21.57;56.80
45369;BME280;51342;55.250;37.668;2022-07-29T04:33:12;99702.06;;;21.66;55.96
45369;BME280;51342;55.250;37.668;2022-07-29T04:35:44;99715.47;;;21.83;55.85
45369;BME280;51342;55.250;37.668;2022-07-29T04:38:15;99708.50;;;21.86;55.20
45369;BME280;51342;55.250;37.668;2022-07-29T04:40:47;99720.84;;;21.90;54.44
45369;BME280;51342;55.250;37.668;2022-07-29T04:43:18;99720.94;;;22.00;55.44
45369;BME280;51342;55.250;37.668;2022-07-29T04:45:50;99714.94;;;22.10;55.18
45369;BME280;51342;55.250;37.668;2022-07-29T04:48:21;99716.00;;;22.26;54.39
45369;BME280;51342;55.250;37.668;2022-07-29T04:50:53;99712.53;;;22.33;53.79
45369;BME280;51342;55.250;37.668;2022-07-29T04:53:24;99713.47;;;22.38;53.08
45369;BME280;51342;55.250;37.668;2022-07-29T04:55:56;99708.25;;;22.41;52.79
45369;BME280;51342;55.250;37.668;2022-07-29T04:58:27;99702.94;;;22.38;52.58
45369;BME280;51342;55.250;37.668;2022-07-29T05:00:59;99712.75;;;22.54;52.38
45369;BME280;51342;55.250;37.668;2022-07-29T05:03:30;99716.31;;;22.58;50.30
45369;BME280;51342;55.250;37.668;2022-07-29T05:06:02;99708.41;;;22.62;50.90
45369;BME280;51342;55.250;37.668;2022-07-29T05:08:33;99705.78;;;22.62;49.32
45369;BME280;51342;55.250;37.668;2022-07-29T05:11:05;99707.63;;;22.69;51.07
45369;BME280;51342;55.250;37.668;2022-07-29T05:13:36;99706.81;;;22.78;49.50
45369;BME280;51342;55.250;37.668;2022-07-29T05:16:08;99701.53;;;22.80;50.90
45369;BME280;51342;55.250;37.668;2022-07-29T05:18:40;99701.53;;;22.77;51.47
45369;BME280;51342;55.250;37.668;2022-07-29T05:21:11;99707.78;;;22.86;51.80
45369;BME280;51342;55.250;37.668;2022-07-29T05:23:43;99703.50;;;23.02;51.71
45369;BME280;51342;55.250;37.668;2022-07-29T05:26:14;99699.13;;;23.07;51.57
45369;BME280;51342;55.250;37.668;2022-07-29T05:28:46;99698.38;;;23.20;51.30
45369;BME280;51342;55.250;37.668;2022-07-29T05:31:17;99704.53;;;23.25;48.91
45369;BME280;51342;55.250;37.668;2022-07-29T05:33:49;99703.69;;;23.26;49.31
45369;BME280;51342;55.250;37.668;2022-07-29T05:36:20;99705.34;;;23.14;49.59
45369;BME280;51342;55.250;37.668;2022-07-29T05:38:52;99696.38;;;22.89;50.17
45369;BME280;51342;55.250;37.668;2022-07-29T05:41:23;99706.81;;;22.80;49.70
45369;BME280;51342;55.250;37.668;2022-07-29T05:43:55;99705.84;;;22.68;49.78
45369;BME280;51342;55.250;37.668;2022-07-29T05:46:26;99702.22;;;22.56;50.47
45369;BME280;51342;55.250;37.668;2022-07-29T05:48:58;99694.28;;;22.53;51.73
45369;BME280;51342;55.250;37.668;2022-07-29T05:51:29;99706.50;;;22.46;50.10
45369;BME280;51342;55.250;37.668;2022-07-29T05:54:01;99696.88;;;22.48;51.62
45369;BME280;51342;55.250;37.668;2022-07-29T05:56:33;99702.25;;;22.62;51.66
45369;BME280;51342;55.250;37.668;2022-07-29T05:59:04;99699.81;;;22.82;52.28
45369;BME280;51342;55.250;37.668;2022-07-29T06:01:36;99695.56;;;23.00;51.46
45369;BME280;51342;55.250;37.668;2022-07-29T06:04:10;99686.84;;;23.12;51.90
45369;BME280;51342;55.250;37.668;2022-07-29T06:06:41;99694.88;;;23.26;50.95
45369;BME280;51342;55.250;37.668;2022-07-29T06:09:13;99688.69;;;23.22;51.47
45369;BME280;51342;55.250;37.668;2022-07-29T06:11:45;99696.59;;;23.25;51.12
45369;BME280;51342;55.250;37.668;2022-07-29T06:14:16;99693.16;;;23.36;51.55
45369;BME280;51342;55.250;37.668;2022-07-29T06:16:48;99695.84;;;23.43;51.62
45369;BME280;51342;55.250;37.668;2022-07-29T06:19:19;99694.97;;;23.46;51.28
45369;BME280;51342;55.250;37.668;2022-07-29T06:21:51;99696.75;;;23.47;50.59
45369;BME280;51342;55.250;37.668;2022-07-29T06:24:22;99687.88;;;23.36;51.02
45369;BME280;51342;55.250;37.668;2022-07-29T06:26:54;99691.41;;;23.35;50.91
45369;BME280;51342;55.250;37.668;2022-07-29T06:29:25;99695.78;;;23.36;49.73
45369;BME280;51342;55.250;37.668;2022-07-29T06:31:57;99698.44;;;23.36;50.23
45369;BME280;51342;55.250;37.668;2022-07-29T06:34:28;99686.13;;;23.36;50.28
45369;BME280;51342;55.250;37.668;2022-07-29T06:37:00;99684.38;;;23.40;50.94
45369;BME280;51342;55.250;37.668;2022-07-29T06:39:35;99689.72;;;23.49;50.39
45369;BME280;51342;55.250;37.668;2022-07-29T06:42:07;99680.03;;;23.52;51.66
45369;BME280;51342;55.250;37.668;2022-07-29T06:44:38;99680.94;;;23.54;50.64
45369;BME280;51342;55.250;37.668;2022-07-29T06:47:10;99674.78;;;23.57;50.63
45369;BME280;51342;55.250;37.668;2022-07-29T06:49:41;99681.00;;;23.64;50.99
45369;BME280;51342;55.250;37.668;2022-07-29T06:52:13;99684.56;;;23.70;49.26
45369;BME280;51342;55.250;37.668;2022-07-29T06:54:44;99678.38;;;23.70;47.96
45369;BME280;51342;55.250;37.668;2022-07-29T06:57:19;99681.81;;;23.58;48.97
45369;BME280;51342;55.250;37.668;2022-07-29T06:59:50;99676.53;;;23.53;48.36
45369;BME280;51342;55.250;37.668;2022-07-29T07:02:22;99681.81;;;23.52;49.59
45369;BME280;51342;55.250;37.668;2022-07-29T07:04:53;99680.16;;;23.66;49.81
45369;BME280;51342;55.250;37.668;2022-07-29T07:07:25;99687.25;;;23.79;49.19
45369;BME280;51342;55.250;37.668;2022-07-29T07:09:57;99689.00;;;23.82;49.80
45369;BME280;51342;55.250;37.668;2022-07-29T07:12:28;99689.94;;;23.95;49.21
45369;BME280;51342;55.250;37.668;2022-07-29T07:15:00;99684.69;;;24.10;49.61
45369;BME280;51342;55.250;37.668;2022-07-29T07:17:31;99682.94;;;24.26;48.58
45369;BME280;51342;55.250;37.668;2022-07-29T07:20:05;99688.22;;;24.27;48.00
45369;BME280;51342;55.250;37.668;2022-07-29T07:22:37;99696.19;;;24.29;47.05
45369;BME280;51342;55.250;37.668;2022-07-29T07:25:09;99691.75;;;24.19;47.76
45369;BME280;51342;55.250;37.668;2022-07-29T07:27:41;99694.34;;;24.05;47.75
45369;BME280;51342;55.250;37.668;2022-07-29T07:30:13;99692.59;;;24.01;48.00
45369;BME280;51342;55.250;37.668;2022-07-29T07:32:45;99698.75;;;24.04;49.06
45369;BME280;51342;55.250;37.668;2022-07-29T07:35:16;99696.16;;;24.12;48.93
45369;BME280;51342;55.250;37.668;2022-07-29T07:37:48;99695.25;;;24.16;48.03
45369;BME280;51342;55.250;37.668;2022-07-29T07:40:19;99691.75;;;24.26;48.43
45369;BME280;51342;55.250;37.668;2022-07-29T07:42:51;99690.94;;;24.41;46.50
45369;BME280;51342;55.250;37.668;2022-07-29T07:45:22;99690.97;;;24.53;47.56
45369;BME280;51342;55.250;37.668;2022-07-29T07:47:54;99687.44;;;24.64;47.29
45369;BME280;51342;55.250;37.668;2022-07-29T07:50:26;99685.69;;;24.75;45.76
45369;BME280;51342;55.250;37.668;2022-07-29T07:52:57;99695.38;;;24.83;46.23
45369;BME280;51342;55.250;37.668;2022-07-29T07:55:29;99689.22;;;24.91;46.59
45369;BME280;51342;55.250;37.668;2022-07-29T07:58:00;99697.13;;;25.03;46.38
45369;BME280;51342;55.250;37.668;2022-07-29T08:00:32;99698.00;;;24.96;45.65
45369;BME280;51342;55.250;37.668;2022-07-29T08:03:03;99701.53;;;24.93;45.94
45369;BME280;51342;55.250;37.668;2022-07-29T08:05:35;99699.78;;;24.77;45.64
45369;BME280;51342;55.250;37.668;2022-07-29T08:08:07;99700.66;;;24.59;45.18
45369;BME280;51342;55.250;37.668;2022-07-29T08:10:38;99708.59;;;24.61;46.03
45369;BME280;51342;55.250;37.668;2022-07-29T08:13:27;99697.13;;;24.72;44.61
45369;BME280;51342;55.250;37.668;2022-07-29T08:15:59;99689.19;;;24.89;44.35
45369;BME280;51342;55.250;37.668;2022-07-29T08:18:32;99690.94;;;24.90;44.22
45369;BME280;51342;55.250;37.668;2022-07-29T08:21:03;99692.72;;;24.83;43.46
45369;BME280;51342;55.250;37.668;2022-07-29T08:23:35;99690.97;;;24.64;43.11
45369;BME280;51342;55.250;37.668;2022-07-29T08:26:17;99704.19;;;24.46;45.45
45369;BME280;51342;55.250;37.668;2022-07-29T08:28:49;99696.25;;;24.40;44.73
45369;BME280;51342;55.250;37.668;2022-07-29T08:31:22;99690.94;;;24.49;44.27
45369;BME280;51342;55.250;37.668;2022-07-29T08:33:53;99689.22;;;24.68;44.93
45369;BME280;51342;55.250;37.668;2022-07-29T08:36:27;99688.31;;;24.82;45.04
45369;BME280;51342;55.250;37.668;2022-07-29T08:38:59;99679.50;;;25.02;42.90
45369;BME280;51342;55.250;37.668;2022-07-29T08:41:31;99685.66;;;25.16;42.06
45369;BME280;51342;55.250;37.668;2022-07-29T08:44:03;99681.25;;;25.12;43.19
45369;BME280;51342;55.250;37.668;2022-07-29T08:46:37;99679.50;;;24.93;42.85
45369;BME280;51342;55.250;37.668;2022-07-29T08:49:10;99686.56;;;24.75;44.05
45369;BME280;51342;55.250;37.668;2022-07-29T08:51:41;99679.50;;;24.85;42.55
45369;BME280;51342;55.250;37.668;2022-07-29T08:54:17;99669.78;;;24.99;43.24
45369;BME280;51342;55.250;37.668;2022-07-29T08:56:50;99682.13;;;25.22;43.66
45369;BME280;51342;55.250;37.668;2022-07-29T08:59:22;99668.88;;;25.23;43.35
45369;BME280;51342;55.250;37.668;2022-07-29T09:01:57;99677.72;;;25.25;44.21
45369;BME280;51342;55.250;37.668;2022-07-29T09:04:33;99686.53;;;25.30;42.83
45369;BME280;51342;55.250;37.668;2022-07-29T09:07:06;99682.94;;;25.44;42.82
45369;BME280;51342;55.250;37.668;2022-07-29T09:09:37;99688.22;;;25.45;41.55
45369;BME280;51342;55.250;37.668;2022-07-29T09:12:11;99685.59;;;25.42;41.92
45369;BME280;51342;55.250;37.668;2022-07-29T09:14:43;99684.69;;;25.51;44.08
45369;BME280;51342;55.250;37.668;2022-07-29T09:17:14;99678.53;;;25.47;42.94
45369;BME280;51342;55.250;37.668;2022-07-29T09:19:48;99687.38;;;25.34;43.37
45369;BME280;51342;55.250;37.668;2022-07-29T09:22:28;99684.78;;;25.11;43.74
45369;BME280;51342;55.250;37.668;2022-07-29T09:25:01;99683.00;;;24.93;44.35
45369;BME280;51342;55.250;37.668;2022-07-29T09:27:32;99690.97;;;24.96;43.20
45369;BME280;51342;55.250;37.668;2022-07-29T09:32:55;99690.94;;;25.18;42.72
45369;BME280;51342;55.250;37.668;2022-07-29T09:35:28;99683.00;;;25.21;43.23
45369;BME280;51342;55.250;37.668;2022-07-29T09:38:10;99694.47;;;25.27;43.14
45369;BME280;51342;55.250;37.668;2022-07-29T09:40:56;99690.88;;;25.41;44.02
45369;BME280;51342;55.250;37.668;2022-07-29T09:43:28;99694.38;;;25.52;42.45
45369;BME280;51342;55.250;37.668;2022-07-29T09:46:13;99689.13;;;25.40;38.41
45369;BME280;51342;55.250;37.668;2022-07-29T09:48:44;99687.41;;;25.26;40.44
45369;BME280;51342;55.250;37.668;2022-07-29T09:51:20;99693.56;;;25.33;42.27
45369;BME280;51342;55.250;37.668;2022-07-29T09:53:52;99690.03;;;25.37;42.42
45369;BME280;51342;55.250;37.668;2022-07-29T09:56:39;99681.19;;;25.44;43.11
45369;BME280;51342;55.250;37.668;2022-07-29T09:59:11;99697.91;;;25.64;42.59
45369;BME280;51342;55.250;37.668;2022-07-29T10:01:43;99697.91;;;25.60;42.09
45369;BME280;51342;55.250;37.668;2022-07-29T10:04:15;99694.38;;;25.55;41.62
45369;BME280;51342;55.250;37.668;2022-07-29T10:09:28;99697.91;;;25.58;41.14
45369;BME280;51342;55.250;37.668;2022-07-29T10:12:09;99691.72;;;25.61;40.47
45369;BME280;51342;55.250;37.668;2022-07-29T10:14:42;99690.84;;;25.59;41.87
45369;BME280;51342;55.250;37.668;2022-07-29T10:17:15;99682.88;;;25.62;40.21
45369;BME280;51342;55.250;37.668;2022-07-29T10:19:48;99681.13;;;25.61;39.21
45369;BME280;51342;55.250;37.668;2022-07-29T10:22:20;99685.56;;;25.56;41.96
45369;BME280;51342;55.250;37.668;2022-07-29T10:24:53;99691.72;;;25.58;42.11
45369;BME280;51342;55.250;37.668;2022-07-29T10:27:26;99686.44;;;25.55;42.27
45369;BME280;51342;55.250;37.668;2022-07-29T10:29:57;99690.88;;;25.54;41.40
45369;BME280;51342;55.250;37.668;2022-07-29T10:44:01;99683.91;;;24.91;42.92
45369;BME280;51342;55.250;37.668;2022-07-29T10:46:38;99692.72;;;24.97;42.52
45369;BME280;51342;55.250;37.668;2022-07-29T10:49:15;99686.56;;;25.14;42.22
45369;BME280;51342;55.250;37.668;2022-07-29T10:54:46;99687.38;;;25.42;42.59
45369;BME280;51342;55.250;37.668;2022-07-29T10:57:29;99679.38;;;25.60;41.76
45369;BME280;51342;55.250;37.668;2022-07-29T11:02:45;99677.63;;;25.48;38.63
45369;BME280;51342;55.250;37.668;2022-07-29T11:05:20;99681.22;;;25.30;39.42
45369;BME280;51342;55.250;37.668;2022-07-29T11:10:44;99694.47;;;25.12;41.11
45369;BME280;51342;55.250;37.668;2022-07-29T11:16:19;99690.97;;;25.08;37.85
45369;BME280;51342;55.250;37.668;2022-07-29T11:19:25;99700.66;;;25.02;40.41
45369;BME280;51342;55.250;37.668;2022-07-29T11:21:57;99698.03;;;25.20;41.34
45369;BME280;51342;55.250;37.668;2022-07-29T11:24:29;99698.88;;;25.31;39.15
45369;BME280;51342;55.250;37.668;2022-07-29T11:27:12;99690.94;;;25.27;39.43
45369;BME280;51342;55.250;37.668;2022-07-29T11:29:49;99695.34;;;25.29;40.36
45369;BME280;51342;55.250;37.668;2022-07-29T11:32:23;99692.69;;;25.23;41.00
45369;BME280;51342;55.250;37.668;2022-07-29T11:35:20;99705.97;;;25.06;41.08
45369;BME280;51342;55.250;37.668;2022-07-29T11:38:27;99709.47;;;24.93;41.95
45369;BME280;51342;55.250;37.668;2022-07-29T11:43:55;99709.50;;;24.69;39.97
45369;BME280;51342;55.250;37.668;2022-07-29T11:46:45;99713.88;;;24.47;39.90
45369;BME280;51342;55.250;37.668;2022-07-29T11:49:21;99710.34;;;24.54;41.98
45369;BME280;51342;55.250;37.668;2022-07-29T11:51:53;99705.06;;;24.62;42.37
45369;BME280;51342;55.250;37.668;2022-07-29T11:54:30;99702.41;;;24.60;42.47
45369;BME280;51342;55.250;37.668;2022-07-29T11:57:02;99709.41;;;24.24;42.87
45369;BME280;51342;55.250;37.668;2022-07-29T11:59:40;99692.72;;;24.36;44.08
45369;BME280;51342;55.250;37.668;2022-07-29T12:02:15;99706.81;;;24.61;44.04
45369;BME280;51342;55.250;37.668;2022-07-29T12:04:55;99702.41;;;24.78;43.54
45369;BME280;51342;55.250;37.668;2022-07-29T12:07:34;99693.59;;;24.82;42.94
45369;BME280;51342;55.250;37.668;2022-07-29T12:10:06;99698.00;;;24.99;43.16
45369;BME280;51342;55.250;37.668;2022-07-29T12:12:38;99699.75;;;25.01;42.15
45369;BME280;51342;55.250;37.668;2022-07-29T12:15:14;99700.66;;;24.93;42.38
45369;BME280;51342;55.250;37.668;2022-07-29T12:17:47;99702.41;;;24.84;44.15
45369;BME280;51342;55.250;37.668;2022-07-29T12:20:29;99701.56;;;24.73;45.77
45369;BME280;51342;55.250;37.668;2022-07-29T12:23:05;99701.56;;;24.63;45.64
45369;BME280;51342;55.250;37.668;2022-07-29T12:25:38;99696.19;;;24.29;45.97
45369;BME280;51342;55.250;37.668;2022-07-29T12:28:12;99701.53;;;24.37;44.61
45369;BME280;51342;55.250;37.668;2022-07-29T12:30:46;99698.84;;;24.29;45.65
45369;BME280;51342;55.250;37.668;2022-07-29T12:33:25;99701.47;;;24.23;46.94
45369;BME280;51342;55.250;37.668;2022-07-29T12:36:00;99699.69;;;24.14;46.91
45369;BME280;51342;55.250;37.668;2022-07-29T12:38:36;99709.38;;;24.12;46.94
45369;BME280;51342;55.250;37.668;2022-07-29T12:41:08;99702.28;;;24.03;47.49
45369;BME280;51342;55.250;37.668;2022-07-29T12:43:52;99706.66;;;23.98;46.96
45369;BME280;51342;55.250;37.668;2022-07-29T12:46:24;99697.00;;;23.96;47.53
45369;BME280;51342;55.250;37.668;2022-07-29T12:48:55;99707.56;;;24.02;47.31
45369;BME280;51342;55.250;37.668;2022-07-29T12:51:34;99701.41;;;24.00;46.19
45369;BME280;51342;55.250;37.668;2022-07-29T12:56:38;99704.06;;;24.09;47.23
45369;BME280;51342;55.250;37.668;2022-07-29T12:59:17;99697.03;;;24.14;47.86
45369;BME280;51342;55.250;37.668;2022-07-29T13:01:50;99700.56;;;24.18;47.40
45369;BME280;51342;55.250;37.668;2022-07-29T13:04:27;99705.00;;;24.25;48.04
45369;BME280;51342;55.250;37.668;2022-07-29T13:07:05;99702.34;;;24.26;47.26
45369;BME280;51342;55.250;37.668;2022-07-29T13:09:43;99703.25;;;24.30;47.62
45369;BME280;51342;55.250;37.668;2022-07-29T13:12:15;99701.47;;;24.29;47.31
45369;BME280;51342;55.250;37.668;2022-07-29T13:14:48;99699.69;;;24.32;48.01
45369;BME280;51342;55.250;37.668;2022-07-29T13:17:22;99699.75;;;24.37;47.64
45369;BME280;51342;55.250;37.668;2022-07-29T13:20:07;99702.34;;;24.31;47.93
45369;BME280;51342;55.250;37.668;2022-07-29T13:22:47;99697.97;;;24.39;47.83
45369;BME280;51342;55.250;37.668;2022-07-29T13:25:30;99693.59;;;24.40;47.50
45369;BME280;51342;55.250;37.668;2022-07-29T13:28:02;99695.34;;;24.42;46.57
45369;BME280;51342;55.250;37.668;2022-07-29T13:30:34;99696.25;;;24.40;45.97
45369;BME280;51342;55.250;37.668;2022-07-29T13:33:05;99699.75;;;24.45;46.47
45369;BME280;51342;55.250;37.668;2022-07-29T13:35:37;99698.00;;;24.47;45.58
45369;BME280;51342;55.250;37.668;2022-07-29T13:38:08;99699.78;;;24.48;46.51
45369;BME280;51342;55.250;37.668;2022-07-29T13:40:40;99702.41;;;24.48;45.80
45369;BME280;51342;55.250;37.668;2022-07-29T13:43:12;99709.47;;;24.41;45.68
45369;BME280;51342;55.250;37.668;2022-07-29T13:45:43;99710.34;;;24.45;45.40
45369;BME280;51342;55.250;37.668;2022-07-29T13:48:15;99700.66;;;24.47;44.74
45369;BME280;51342;55.250;37.668;2022-07-29T13:50:46;99697.09;;;24.37;45.63
45369;BME280;51342;55.250;37.668;2022-07-29T13:53:19;99707.66;;;24.34;46.46
45369;BME280;51342;55.250;37.668;2022-07-29T13:55:50;99712.06;;;24.29;47.54
45369;BME280;51342;55.250;37.668;2022-07-29T13:58:22;99708.50;;;24.21;48.51
45369;BME280;51342;55.250;37.668;2022-07-29T14:00:53;99705.84;;;24.12;49.26
45369;BME280;51342;55.250;37.668;2022-07-29T14:03:26;99704.06;;;24.06;49.76
45369;BME280;51342;55.250;37.668;2022-07-29T14:05:58;99704.06;;;24.01;48.86
45369;BME280;51342;55.250;37.668;2022-07-29T14:08:31;99705.81;;;24.01;48.97
45369;BME280;51342;55.250;37.668;2022-07-29T14:11:02;99703.16;;;23.99;48.04
45369;BME280;51342;55.250;37.668;2022-07-29T14:13:34;99695.22;;;23.98;47.93
45369;BME280;51342;55.250;37.668;2022-07-29T14:16:05;99703.13;;;23.90;48.25